sensor_id;sensor_type;location;lat;lon;timestamp;P1;durP1;ratioP1;P2;durP2;ratioP2
76854;SDS011;66343;44.588;33.450;2023-06-14T00:01:31;9.77;;;4.32;;
76854;SDS011;66343;44.588;33.450;2023-06-14T00:04:03;10.43;;;4.50;;
76854;SDS011;66343;44.588;33.450;2023-06-14T00:06:39;9.00;;;4.47;;
76854;SDS011;66343;44.588;33.450;2023-06-14T00:09:13;8.63;;;4.60;;
76854;SDS011;66343;44.588;33.450;2023-06-14T00:11:48;8.45;;;4.10;;
76854;SDS011;66343;44.588;33.450;2023-06-14T00:14:20;8.65;;;3.95;;
76854;SDS011;66343;44.588;33.450;2023-06-14T00:16:52;8.90;;;4.25;;
76854;SDS011;66343;44.588;33.450;2023-06-14T00:19:24;8.10;;;4.10;;
76854;SDS011;66343;44.588;33.450;2023-06-14T00:22:01;8.27;;;3.85;;
76854;SDS011;66343;44.588;33.450;2023-06-14T00:24:34;9.70;;;4.47;;
76854;SDS011;66343;44.588;33.450;2023-06-14T00:27:06;8.75;;;3.65;;
76854;SDS011;66343;44.588;33.450;2023-06-14T00:29:38;8.88;;;4.38;;
76854;SDS011;66343;44.588;33.450;2023-06-14T00:32:09;8.55;;;4.53;;
76854;SDS011;66343;44.588;33.450;2023-06-14T00:34:41;8.60;;;4.38;;
76854;SDS011;66343;44.588;33.450;2023-06-14T00:37:13;9.20;;;4.10;;
76854;SDS011;66343;44.588;33.450;2023-06-14T00:39:43;10.70;;;4.97;;
76854;SDS011;66343;44.588;33.450;2023-06-14T00:42:32;9.50;;;4.72;;
76854;SDS011;66343;44.588;33.450;2023-06-14T00:45:12;8.43;;;4.95;;
76854;SDS011;66343;44.588;33.450;2023-06-14T00:47:47;8.88;;;4.60;;
76854;SDS011;66343;44.588;33.450;2023-06-14T00:50:26;9.77;;;4.55;;
76854;SDS011;66343;44.588;33.450;2023-06-14T00:52:56;8.00;;;4.40;;
76854;SDS011;66343;44.588;33.450;2023-06-14T00:55:26;8.93;;;4.78;;
76854;SDS011;66343;44.588;33.450;2023-06-14T00:58:04;7.85;;;4.60;;
76854;SDS011;66343;44.588;33.450;2023-06-14T01:00:35;9.60;;;4.60;;
76854;SDS011;66343;44.588;33.450;2023-06-14T01:03:10;11.00;;;4.80;;
76854;SDS011;66343;44.588;33.450;2023-06-14T01:05:45;8.45;;;5.00;;
76854;SDS011;66343;44.588;33.450;2023-06-14T01:11:05;9.50;;;4.95;;
76854;SDS011;66343;44.588;33.450;2023-06-14T01:13:42;8.02;;;4.18;;
76854;SDS011;66343;44.588;33.450;2023-06-14T01:16:15;9.40;;;4.88;;
76854;SDS011;66343;44.588;33.450;2023-06-14T01:18:46;8.88;;;5.28;;
76854;SDS011;66343;44.588;33.450;2023-06-14T01:21:20;10.65;;;5.45;;
76854;SDS011;66343;44.588;33.450;2023-06-14T01:23:51;10.02;;;4.82;;
76854;SDS011;66343;44.588;33.450;2023-06-14T01:26:23;7.95;;;4.50;;
76854;SDS011;66343;44.588;33.450;2023-06-14T01:28:54;10.10;;;5.13;;
76854;SDS011;66343;44.588;33.450;2023-06-14T01:31:28;8.20;;;4.95;;
76854;SDS011;66343;44.588;33.450;2023-06-14T01:33:58;10.07;;;5.05;;
76854;SDS011;66343;44.588;33.450;2023-06-14T01:36:29;8.10;;;4.53;;
76854;SDS011;66343;44.588;33.450;2023-06-14T01:39:03;8.70;;;4.93;;
76854;SDS011;66343;44.588;33.450;2023-06-14T01:41:34;9.02;;;5.38;;
76854;SDS011;66343;44.588;33.450;2023-06-14T01:44:04;7.82;;;4.72;;
76854;SDS011;66343;44.588;33.450;2023-06-14T01:46:40;9.90;;;5.15;;
76854;SDS011;66343;44.588;33.450;2023-06-14T01:49:11;9.75;;;4.85;;
76854;SDS011;66343;44.588;33.450;2023-06-14T01:51:41;7.45;;;4.35;;
76854;SDS011;66343;44.588;33.450;2023-06-14T01:54:11;9.30;;;4.07;;
76854;SDS011;66343;44.588;33.450;2023-06-14T01:56:48;9.70;;;4.55;;
76854;SDS011;66343;44.588;33.450;2023-06-14T01:59:17;9.02;;;5.15;;
76854;SDS011;66343;44.588;33.450;2023-06-14T02:01:50;8.45;;;4.40;;
76854;SDS011;66343;44.588;33.450;2023-06-14T02:04:26;8.20;;;4.65;;
76854;SDS011;66343;44.588;33.450;2023-06-14T02:06:58;9.25;;;4.50;;
76854;SDS011;66343;44.588;33.450;2023-06-14T02:09:33;9.38;;;4.03;;
76854;SDS011;66343;44.588;33.450;2023-06-14T02:12:06;9.55;;;4.53;;
76854;SDS011;66343;44.588;33.450;2023-06-14T02:14:42;7.70;;;4.20;;
76854;SDS011;66343;44.588;33.450;2023-06-14T02:17:13;8.63;;;4.63;;
76854;SDS011;66343;44.588;33.450;2023-06-14T02:19:48;8.13;;;4.22;;
76854;SDS011;66343;44.588;33.450;2023-06-14T02:22:21;8.15;;;4.45;;
76854;SDS011;66343;44.588;33.450;2023-06-14T02:24:55;9.07;;;4.28;;
76854;SDS011;66343;44.588;33.450;2023-06-14T02:27:32;8.35;;;4.13;;
76854;SDS011;66343;44.588;33.450;2023-06-14T02:30:13;7.30;;;4.20;;
76854;SDS011;66343;44.588;33.450;2023-06-14T02:32:47;9.13;;;3.88;;
76854;SDS011;66343;44.588;33.450;2023-06-14T02:35:25;7.57;;;3.60;;
76854;SDS011;66343;44.588;33.450;2023-06-14T02:37:56;6.70;;;3.38;;
76854;SDS011;66343;44.588;33.450;2023-06-14T02:40:32;8.90;;;4.50;;
76854;SDS011;66343;44.588;33.450;2023-06-14T02:43:01;8.73;;;4.03;;
76854;SDS011;66343;44.588;33.450;2023-06-14T02:45:34;8.05;;;4.20;;
76854;SDS011;66343;44.588;33.450;2023-06-14T02:48:12;7.05;;;3.95;;
76854;SDS011;66343;44.588;33.450;2023-06-14T02:50:48;7.38;;;3.60;;
76854;SDS011;66343;44.588;33.450;2023-06-14T02:53:20;7.95;;;3.70;;
76854;SDS011;66343;44.588;33.450;2023-06-14T02:55:54;7.13;;;3.83;;
76854;SDS011;66343;44.588;33.450;2023-06-14T02:58:28;9.63;;;3.72;;
76854;SDS011;66343;44.588;33.450;2023-06-14T03:01:05;8.48;;;3.70;;
76854;SDS011;66343;44.588;33.450;2023-06-14T03:03:44;9.10;;;4.22;;
76854;SDS011;66343;44.588;33.450;2023-06-14T03:06:16;10.73;;;4.30;;
76854;SDS011;66343;44.588;33.450;2023-06-14T03:08:49;7.80;;;3.70;;
76854;SDS011;66343;44.588;33.450;2023-06-14T03:11:30;7.40;;;3.65;;
76854;SDS011;66343;44.588;33.450;2023-06-14T03:14:08;7.82;;;3.80;;
76854;SDS011;66343;44.588;33.450;2023-06-14T03:16:42;7.80;;;3.83;;
76854;SDS011;66343;44.588;33.450;2023-06-14T03:19:18;7.65;;;3.50;;
76854;SDS011;66343;44.588;33.450;2023-06-14T03:21:51;7.63;;;3.33;;
76854;SDS011;66343;44.588;33.450;2023-06-14T03:24:30;8.32;;;3.83;;
76854;SDS011;66343;44.588;33.450;2023-06-14T03:27:11;8.98;;;3.38;;
76854;SDS011;66343;44.588;33.450;2023-06-14T03:29:51;7.05;;;3.40;;
76854;SDS011;66343;44.588;33.450;2023-06-14T03:32:28;8.07;;;3.60;;
76854;SDS011;66343;44.588;33.450;2023-06-14T03:35:03;8.93;;;3.65;;
76854;SDS011;66343;44.588;33.450;2023-06-14T03:37:33;8.38;;;3.45;;
76854;SDS011;66343;44.588;33.450;2023-06-14T03:40:05;6.05;;;3.00;;
76854;SDS011;66343;44.588;33.450;2023-06-14T03:42:41;6.88;;;3.30;;
76854;SDS011;66343;44.588;33.450;2023-06-14T03:45:16;7.13;;;3.60;;
76854;SDS011;66343;44.588;33.450;2023-06-14T03:47:52;8.02;;;3.08;;
76854;SDS011;66343;44.588;33.450;2023-06-14T03:50:25;8.05;;;3.63;;
76854;SDS011;66343;44.588;33.450;2023-06-14T03:53:03;8.85;;;3.78;;
76854;SDS011;66343;44.588;33.450;2023-06-14T03:55:39;8.05;;;3.47;;
76854;SDS011;66343;44.588;33.450;2023-06-14T03:58:12;7.82;;;3.55;;
76854;SDS011;66343;44.588;33.450;2023-06-14T04:00:46;6.57;;;3.05;;
76854;SDS011;66343;44.588;33.450;2023-06-14T04:03:24;9.80;;;4.20;;
76854;SDS011;66343;44.588;33.450;2023-06-14T04:06:00;12.45;;;7.50;;
76854;SDS011;66343;44.588;33.450;2023-06-14T04:08:33;10.95;;;4.72;;
76854;SDS011;66343;44.588;33.450;2023-06-14T04:11:04;8.70;;;4.55;;
76854;SDS011;66343;44.588;33.450;2023-06-14T04:13:35;10.98;;;6.13;;
76854;SDS011;66343;44.588;33.450;2023-06-14T04:16:13;10.52;;;5.50;;
76854;SDS011;66343;44.588;33.450;2023-06-14T04:18:48;8.82;;;3.97;;
76854;SDS011;66343;44.588;33.450;2023-06-14T04:21:24;7.93;;;3.80;;
76854;SDS011;66343;44.588;33.450;2023-06-14T04:24:00;7.57;;;3.47;;
76854;SDS011;66343;44.588;33.450;2023-06-14T04:26:40;7.53;;;3.63;;
76854;SDS011;66343;44.588;33.450;2023-06-14T04:29:19;7.88;;;4.10;;
76854;SDS011;66343;44.588;33.450;2023-06-14T04:31:59;8.05;;;3.83;;
76854;SDS011;66343;44.588;33.450;2023-06-14T04:34:36;7.22;;;3.80;;
76854;SDS011;66343;44.588;33.450;2023-06-14T04:37:09;7.93;;;3.85;;
76854;SDS011;66343;44.588;33.450;2023-06-14T04:39:47;7.63;;;3.40;;
76854;SDS011;66343;44.588;33.450;2023-06-14T04:42:20;8.55;;;3.83;;
76854;SDS011;66343;44.588;33.450;2023-06-14T04:44:57;6.80;;;3.60;;
76854;SDS011;66343;44.588;33.450;2023-06-14T04:47:28;8.40;;;4.00;;
76854;SDS011;66343;44.588;33.450;2023-06-14T04:50:04;7.85;;;3.67;;
76854;SDS011;66343;44.588;33.450;2023-06-14T04:52:37;8.82;;;3.90;;
76854;SDS011;66343;44.588;33.450;2023-06-14T04:58:18;7.97;;;3.53;;
76854;SDS011;66343;44.588;33.450;2023-06-14T05:01:00;8.93;;;4.00;;
76854;SDS011;66343;44.588;33.450;2023-06-14T05:03:31;10.07;;;3.75;;
76854;SDS011;66343;44.588;33.450;2023-06-14T05:06:04;9.90;;;4.07;;
76854;SDS011;66343;44.588;33.450;2023-06-14T05:08:39;7.85;;;3.65;;
76854;SDS011;66343;44.588;33.450;2023-06-14T05:11:13;9.02;;;3.53;;
76854;SDS011;66343;44.588;33.450;2023-06-14T05:13:49;7.65;;;3.30;;
76854;SDS011;66343;44.588;33.450;2023-06-14T05:16:25;11.50;;;3.78;;
76854;SDS011;66343;44.588;33.450;2023-06-14T05:19:04;11.38;;;3.90;;
76854;SDS011;66343;44.588;33.450;2023-06-14T05:21:34;9.48;;;3.92;;
76854;SDS011;66343;44.588;33.450;2023-06-14T05:24:10;8.73;;;3.22;;
76854;SDS011;66343;44.588;33.450;2023-06-14T05:26:39;8.90;;;3.45;;
76854;SDS011;66343;44.588;33.450;2023-06-14T05:29:14;9.25;;;3.53;;
76854;SDS011;66343;44.588;33.450;2023-06-14T05:31:48;8.95;;;4.20;;
76854;SDS011;66343;44.588;33.450;2023-06-14T05:34:20;9.48;;;3.97;;
76854;SDS011;66343;44.588;33.450;2023-06-14T05:36:49;10.43;;;3.80;;
76854;SDS011;66343;44.588;33.450;2023-06-14T05:39:21;8.77;;;3.20;;
76854;SDS011;66343;44.588;33.450;2023-06-14T05:41:55;7.93;;;2.95;;
76854;SDS011;66343;44.588;33.450;2023-06-14T05:44:27;7.82;;;3.28;;
76854;SDS011;66343;44.588;33.450;2023-06-14T05:46:56;6.40;;;3.20;;
76854;SDS011;66343;44.588;33.450;2023-06-14T05:49:29;8.43;;;3.65;;
76854;SDS011;66343;44.588;33.450;2023-06-14T05:51:59;11.50;;;3.80;;
76854;SDS011;66343;44.588;33.450;2023-06-14T05:54:33;8.35;;;3.20;;
76854;SDS011;66343;44.588;33.450;2023-06-14T05:57:03;7.93;;;3.20;;
76854;SDS011;66343;44.588;33.450;2023-06-14T05:59:37;9.15;;;3.55;;
76854;SDS011;66343;44.588;33.450;2023-06-14T06:02:07;7.85;;;3.88;;
76854;SDS011;66343;44.588;33.450;2023-06-14T06:04:41;9.00;;;4.07;;
76854;SDS011;66343;44.588;33.450;2023-06-14T06:07:10;7.85;;;3.65;;
76854;SDS011;66343;44.588;33.450;2023-06-14T06:09:40;7.60;;;3.53;;
76854;SDS011;66343;44.588;33.450;2023-06-14T06:12:13;7.13;;;3.83;;
76854;SDS011;66343;44.588;33.450;2023-06-14T06:14:44;8.43;;;4.13;;
76854;SDS011;66343;44.588;33.450;2023-06-14T06:17:14;8.25;;;3.92;;
76854;SDS011;66343;44.588;33.450;2023-06-14T06:19:46;10.68;;;4.03;;
76854;SDS011;66343;44.588;33.450;2023-06-14T06:22:18;8.13;;;3.95;;
76854;SDS011;66343;44.588;33.450;2023-06-14T06:24:48;11.50;;;4.07;;
76854;SDS011;66343;44.588;33.450;2023-06-14T06:27:20;10.05;;;4.15;;
76854;SDS011;66343;44.588;33.450;2023-06-14T06:29:49;9.13;;;4.15;;
76854;SDS011;66343;44.588;33.450;2023-06-14T06:32:22;8.45;;;3.72;;
76854;SDS011;66343;44.588;33.450;2023-06-14T06:34:58;7.95;;;3.85;;
76854;SDS011;66343;44.588;33.450;2023-06-14T06:37:33;11.20;;;4.50;;
76854;SDS011;66343;44.588;33.450;2023-06-14T06:40:12;8.20;;;4.30;;
76854;SDS011;66343;44.588;33.450;2023-06-14T06:42:44;8.63;;;4.22;;
76854;SDS011;66343;44.588;33.450;2023-06-14T06:45:20;8.73;;;4.00;;
76854;SDS011;66343;44.588;33.450;2023-06-14T06:47:52;7.82;;;4.25;;
76854;SDS011;66343;44.588;33.450;2023-06-14T06:50:24;8.45;;;4.32;;
76854;SDS011;66343;44.588;33.450;2023-06-14T06:52:58;9.15;;;4.07;;
76854;SDS011;66343;44.588;33.450;2023-06-14T06:55:30;8.80;;;4.00;;
76854;SDS011;66343;44.588;33.450;2023-06-14T06:58:03;8.68;;;4.20;;
76854;SDS011;66343;44.588;33.450;2023-06-14T07:00:39;8.73;;;3.90;;
76854;SDS011;66343;44.588;33.450;2023-06-14T07:03:13;9.85;;;3.92;;
76854;SDS011;66343;44.588;33.450;2023-06-14T07:05:42;7.55;;;3.78;;
76854;SDS011;66343;44.588;33.450;2023-06-14T07:08:22;9.35;;;4.45;;
76854;SDS011;66343;44.588;33.450;2023-06-14T07:10:58;9.77;;;3.90;;
76854;SDS011;66343;44.588;33.450;2023-06-14T07:13:31;8.77;;;3.78;;
76854;SDS011;66343;44.588;33.450;2023-06-14T07:16:01;7.57;;;3.83;;
76854;SDS011;66343;44.588;33.450;2023-06-14T07:18:32;8.15;;;3.78;;
76854;SDS011;66343;44.588;33.450;2023-06-14T07:21:01;9.55;;;3.53;;
76854;SDS011;66343;44.588;33.450;2023-06-14T07:23:38;7.75;;;3.50;;
76854;SDS011;66343;44.588;33.450;2023-06-14T07:26:10;7.60;;;3.72;;
76854;SDS011;66343;44.588;33.450;2023-06-14T07:28:43;8.68;;;3.28;;
76854;SDS011;66343;44.588;33.450;2023-06-14T07:31:19;8.73;;;3.50;;
76854;SDS011;66343;44.588;33.450;2023-06-14T07:33:48;9.23;;;5.03;;
76854;SDS011;66343;44.588;33.450;2023-06-14T07:36:17;6.47;;;2.80;;
76854;SDS011;66343;44.588;33.450;2023-06-14T07:38:53;6.97;;;2.83;;
76854;SDS011;66343;44.588;33.450;2023-06-14T07:41:24;7.25;;;3.15;;
76854;SDS011;66343;44.588;33.450;2023-06-14T07:43:54;7.13;;;3.22;;
76854;SDS011;66343;44.588;33.450;2023-06-14T07:46:29;7.50;;;3.40;;
76854;SDS011;66343;44.588;33.450;2023-06-14T07:49:02;7.10;;;3.60;;
76854;SDS011;66343;44.588;33.450;2023-06-14T07:51:32;8.02;;;3.33;;
76854;SDS011;66343;44.588;33.450;2023-06-14T07:54:04;7.70;;;3.35;;
76854;SDS011;66343;44.588;33.450;2023-06-14T07:56:35;10.32;;;3.20;;
76854;SDS011;66343;44.588;33.450;2023-06-14T07:59:15;7.93;;;3.20;;
76854;SDS011;66343;44.588;33.450;2023-06-14T08:01:49;6.00;;;2.90;;
76854;SDS011;66343;44.588;33.450;2023-06-14T08:04:24;8.60;;;3.50;;
76854;SDS011;66343;44.588;33.450;2023-06-14T08:07:00;8.27;;;3.78;;
76854;SDS011;66343;44.588;33.450;2023-06-14T08:09:37;7.80;;;3.90;;
76854;SDS011;66343;44.588;33.450;2023-06-14T08:12:10;7.38;;;3.40;;
76854;SDS011;66343;44.588;33.450;2023-06-14T08:14:43;7.65;;;3.38;;
76854;SDS011;66343;44.588;33.450;2023-06-14T08:17:18;7.00;;;3.50;;
76854;SDS011;66343;44.588;33.450;2023-06-14T08:19:50;7.35;;;3.10;;
76854;SDS011;66343;44.588;33.450;2023-06-14T08:22:22;9.13;;;3.47;;
76854;SDS011;66343;44.588;33.450;2023-06-14T08:24:56;8.95;;;3.47;;
76854;SDS011;66343;44.588;33.450;2023-06-14T08:27:32;7.05;;;3.08;;
76854;SDS011;66343;44.588;33.450;2023-06-14T08:30:04;22.85;;;6.00;;
76854;SDS011;66343;44.588;33.450;2023-06-14T08:32:42;6.40;;;2.50;;
76854;SDS011;66343;44.588;33.450;2023-06-14T08:35:28;6.22;;;2.50;;
76854;SDS011;66343;44.588;33.450;2023-06-14T08:38:09;10.18;;;2.95;;
76854;SDS011;66343;44.588;33.450;2023-06-14T08:40:43;10.15;;;3.40;;
76854;SDS011;66343;44.588;33.450;2023-06-14T08:43:16;9.38;;;3.03;;
76854;SDS011;66343;44.588;33.450;2023-06-14T08:46:11;7.60;;;2.70;;
76854;SDS011;66343;44.588;33.450;2023-06-14T08:48:54;9.73;;;3.22;;
76854;SDS011;66343;44.588;33.450;2023-06-14T08:51:33;6.65;;;2.55;;
76854;SDS011;66343;44.588;33.450;2023-06-14T08:54:05;6.03;;;2.50;;
76854;SDS011;66343;44.588;33.450;2023-06-14T08:56:41;6.07;;;2.35;;
76854;SDS011;66343;44.588;33.450;2023-06-14T08:59:15;7.45;;;2.40;;
76854;SDS011;66343;44.588;33.450;2023-06-14T09:01:52;7.60;;;2.85;;
76854;SDS011;66343;44.588;33.450;2023-06-14T09:04:40;7.18;;;2.97;;
76854;SDS011;66343;44.588;33.450;2023-06-14T09:07:11;7.35;;;3.40;;
76854;SDS011;66343;44.588;33.450;2023-06-14T09:09:43;6.60;;;2.83;;
76854;SDS011;66343;44.588;33.450;2023-06-14T09:12:36;6.03;;;2.90;;
76854;SDS011;66343;44.588;33.450;2023-06-14T09:18:01;6.68;;;2.88;;
76854;SDS011;66343;44.588;33.450;2023-06-14T09:20:35;5.95;;;2.95;;
76854;SDS011;66343;44.588;33.450;2023-06-14T09:23:12;8.18;;;2.95;;
76854;SDS011;66343;44.588;33.450;2023-06-14T09:25:47;6.85;;;2.90;;
76854;SDS011;66343;44.588;33.450;2023-06-14T09:28:17;7.78;;;3.05;;
76854;SDS011;66343;44.588;33.450;2023-06-14T09:30:55;7.20;;;3.33;;
76854;SDS011;66343;44.588;33.450;2023-06-14T09:33:30;7.55;;;3.45;;
76854;SDS011;66343;44.588;33.450;2023-06-14T09:36:27;8.40;;;3.28;;
76854;SDS011;66343;44.588;33.450;2023-06-14T09:39:02;8.55;;;3.20;;
76854;SDS011;66343;44.588;33.450;2023-06-14T09:41:36;7.60;;;2.58;;
76854;SDS011;66343;44.588;33.450;2023-06-14T09:44:09;7.50;;;3.03;;
76854;SDS011;66343;44.588;33.450;2023-06-14T09:46:50;6.60;;;2.60;;
76854;SDS011;66343;44.588;33.450;2023-06-14T09:49:26;7.60;;;2.80;;
76854;SDS011;66343;44.588;33.450;2023-06-14T09:52:02;8.75;;;3.10;;
76854;SDS011;66343;44.588;33.450;2023-06-14T09:54:35;8.93;;;3.45;;
76854;SDS011;66343;44.588;33.450;2023-06-14T09:57:15;8.05;;;3.42;;
76854;SDS011;66343;44.588;33.450;2023-06-14T09:59:52;7.85;;;3.47;;
76854;SDS011;66343;44.588;33.450;2023-06-14T10:02:41;7.82;;;3.80;;
76854;SDS011;66343;44.588;33.450;2023-06-14T10:05:21;8.52;;;4.15;;
76854;SDS011;66343;44.588;33.450;2023-06-14T10:08:25;8.52;;;3.88;;
76854;SDS011;66343;44.588;33.450;2023-06-14T10:11:12;8.38;;;3.95;;
76854;SDS011;66343;44.588;33.450;2023-06-14T10:13:52;8.80;;;4.18;;
76854;SDS011;66343;44.588;33.450;2023-06-14T10:16:30;9.93;;;4.13;;
76854;SDS011;66343;44.588;33.450;2023-06-14T10:22:17;8.93;;;4.28;;
76854;SDS011;66343;44.588;33.450;2023-06-14T10:25:07;9.20;;;4.15;;
76854;SDS011;66343;44.588;33.450;2023-06-14T10:27:44;9.80;;;4.03;;
76854;SDS011;66343;44.588;33.450;2023-06-14T10:30:24;9.25;;;4.03;;
76854;SDS011;66343;44.588;33.450;2023-06-14T10:33:06;8.02;;;3.90;;
76854;SDS011;66343;44.588;33.450;2023-06-14T10:35:36;8.35;;;3.85;;
76854;SDS011;66343;44.588;33.450;2023-06-14T10:38:06;8.80;;;3.85;;
76854;SDS011;66343;44.588;33.450;2023-06-14T10:40:36;8.50;;;3.78;;
76854;SDS011;66343;44.588;33.450;2023-06-14T10:43:23;9.18;;;4.30;;
76854;SDS011;66343;44.588;33.450;2023-06-14T10:48:56;11.32;;;4.32;;
76854;SDS011;66343;44.588;33.450;2023-06-14T10:51:32;9.30;;;4.40;;
76854;SDS011;66343;44.588;33.450;2023-06-14T10:54:22;10.73;;;4.75;;
76854;SDS011;66343;44.588;33.450;2023-06-14T10:56:59;10.50;;;4.93;;
76854;SDS011;66343;44.588;33.450;2023-06-14T10:59:36;10.82;;;5.30;;
76854;SDS011;66343;44.588;33.450;2023-06-14T11:05:17;11.93;;;5.50;;
76854;SDS011;66343;44.588;33.450;2023-06-14T11:11:14;13.15;;;5.70;;
76854;SDS011;66343;44.588;33.450;2023-06-14T11:13:51;12.30;;;5.78;;
76854;SDS011;66343;44.588;33.450;2023-06-14T11:19:02;10.77;;;5.70;;
76854;SDS011;66343;44.588;33.450;2023-06-14T11:21:33;12.07;;;5.45;;
76854;SDS011;66343;44.588;33.450;2023-06-14T11:24:13;10.88;;;5.53;;
76854;SDS011;66343;44.588;33.450;2023-06-14T11:26:43;10.02;;;5.18;;
76854;SDS011;66343;44.588;33.450;2023-06-14T11:29:20;11.88;;;5.53;;
76854;SDS011;66343;44.588;33.450;2023-06-14T11:31:50;10.65;;;5.68;;
76854;SDS011;66343;44.588;33.450;2023-06-14T11:34:28;10.80;;;5.00;;
76854;SDS011;66343;44.588;33.450;2023-06-14T11:37:02;10.88;;;5.25;;
76854;SDS011;66343;44.588;33.450;2023-06-14T11:39:36;11.43;;;5.43;;
76854;SDS011;66343;44.588;33.450;2023-06-14T11:42:08;10.38;;;4.93;;
76854;SDS011;66343;44.588;33.450;2023-06-14T11:44:45;9.45;;;4.57;;
76854;SDS011;66343;44.588;33.450;2023-06-14T11:47:15;11.57;;;5.30;;
76854;SDS011;66343;44.588;33.450;2023-06-14T11:49:46;10.35;;;4.57;;
76854;SDS011;66343;44.588;33.450;2023-06-14T11:52:19;11.07;;;5.25;;
76854;SDS011;66343;44.588;33.450;2023-06-14T11:54:49;11.50;;;4.88;;
76854;SDS011;66343;44.588;33.450;2023-06-14T11:57:18;9.00;;;5.10;;
76854;SDS011;66343;44.588;33.450;2023-06-14T11:59:51;10.10;;;5.20;;
76854;SDS011;66343;44.588;33.450;2023-06-14T12:02:22;9.23;;;5.07;;
76854;SDS011;66343;44.588;33.450;2023-06-14T12:05:03;10.10;;;4.47;;
76854;SDS011;66343;44.588;33.450;2023-06-14T12:07:41;13.80;;;4.93;;
76854;SDS011;66343;44.588;33.450;2023-06-14T12:13:13;14.45;;;5.97;;
76854;SDS011;66343;44.588;33.450;2023-06-14T12:16:04;12.10;;;5.63;;
76854;SDS011;66343;44.588;33.450;2023-06-14T12:18:38;13.40;;;6.05;;
76854;SDS011;66343;44.588;33.450;2023-06-14T12:21:12;12.15;;;6.28;;
76854;SDS011;66343;44.588;33.450;2023-06-14T12:23:45;11.68;;;6.50;;
76854;SDS011;66343;44.588;33.450;2023-06-14T12:26:20;13.45;;;6.82;;
76854;SDS011;66343;44.588;33.450;2023-06-14T12:28:59;13.50;;;6.68;;
76854;SDS011;66343;44.588;33.450;2023-06-14T12:31:36;15.02;;;6.72;;
76854;SDS011;66343;44.588;33.450;2023-06-14T12:34:06;15.50;;;6.47;;
76854;SDS011;66343;44.588;33.450;2023-06-14T12:36:43;12.95;;;6.90;;
76854;SDS011;66343;44.588;33.450;2023-06-14T12:39:14;18.48;;;6.15;;
76854;SDS011;66343;44.588;33.450;2023-06-14T12:41:46;10.90;;;5.55;;
76854;SDS011;66343;44.588;33.450;2023-06-14T12:44:21;8.07;;;4.43;;
76854;SDS011;66343;44.588;33.450;2023-06-14T12:46:54;9.88;;;4.35;;
76854;SDS011;66343;44.588;33.450;2023-06-14T12:49:27;11.05;;;4.22;;
76854;SDS011;66343;44.588;33.450;2023-06-14T12:52:01;9.77;;;4.05;;
76854;SDS011;66343;44.588;33.450;2023-06-14T12:54:35;8.40;;;3.33;;
76854;SDS011;66343;44.588;33.450;2023-06-14T12:57:24;8.05;;;3.30;;
76854;SDS011;66343;44.588;33.450;2023-06-14T12:59:59;10.60;;;3.40;;
76854;SDS011;66343;44.588;33.450;2023-06-14T13:02:31;9.63;;;3.63;;
76854;SDS011;66343;44.588;33.450;2023-06-14T13:05:04;8.15;;;3.47;;
76854;SDS011;66343;44.588;33.450;2023-06-14T13:07:36;7.85;;;3.28;;
76854;SDS011;66343;44.588;33.450;2023-06-14T13:10:26;10.65;;;3.47;;
76854;SDS011;66343;44.588;33.450;2023-06-14T13:12:56;9.73;;;3.40;;
76854;SDS011;66343;44.588;33.450;2023-06-14T13:15:30;8.05;;;2.85;;
76854;SDS011;66343;44.588;33.450;2023-06-14T13:17:59;8.55;;;3.38;;
76854;SDS011;66343;44.588;33.450;2023-06-14T13:20:29;8.15;;;3.40;;
76854;SDS011;66343;44.588;33.450;2023-06-14T13:23:25;8.27;;;3.20;;
76854;SDS011;66343;44.588;33.450;2023-06-14T13:26:00;9.35;;;3.55;;
76854;SDS011;66343;44.588;33.450;2023-06-14T13:28:31;8.68;;;3.40;;
76854;SDS011;66343;44.588;33.450;2023-06-14T13:31:03;7.38;;;3.10;;
76854;SDS011;66343;44.588;33.450;2023-06-14T13:33:38;8.82;;;3.47;;
76854;SDS011;66343;44.588;33.450;2023-06-14T13:38:56;8.68;;;3.83;;
76854;SDS011;66343;44.588;33.450;2023-06-14T13:41:32;7.80;;;3.70;;
76854;SDS011;66343;44.588;33.450;2023-06-14T13:44:07;9.07;;;4.35;;
76854;SDS011;66343;44.588;33.450;2023-06-14T13:46:44;9.13;;;4.40;;
76854;SDS011;66343;44.588;33.450;2023-06-14T13:49:17;9.82;;;4.35;;
76854;SDS011;66343;44.588;33.450;2023-06-14T13:51:50;10.90;;;4.47;;
76854;SDS011;66343;44.588;33.450;2023-06-14T13:54:24;7.70;;;4.07;;
76854;SDS011;66343;44.588;33.450;2023-06-14T13:56:56;13.20;;;4.90;;
76854;SDS011;66343;44.588;33.450;2023-06-14T13:59:32;9.45;;;4.22;;
76854;SDS011;66343;44.588;33.450;2023-06-14T14:02:04;10.95;;;4.65;;
76854;SDS011;66343;44.588;33.450;2023-06-14T14:04:34;8.38;;;4.70;;
76854;SDS011;66343;44.588;33.450;2023-06-14T14:07:08;10.15;;;4.63;;
76854;SDS011;66343;44.588;33.450;2023-06-14T14:09:40;11.00;;;4.60;;
76854;SDS011;66343;44.588;33.450;2023-06-14T14:12:16;10.23;;;5.13;;
76854;SDS011;66343;44.588;33.450;2023-06-14T14:14:46;10.10;;;4.40;;
76854;SDS011;66343;44.588;33.450;2023-06-14T14:17:18;8.00;;;4.18;;
76854;SDS011;66343;44.588;33.450;2023-06-14T14:19:54;9.38;;;4.38;;
76854;SDS011;66343;44.588;33.450;2023-06-14T14:22:23;11.30;;;4.93;;
76854;SDS011;66343;44.588;33.450;2023-06-14T14:24:56;10.98;;;4.18;;
76854;SDS011;66343;44.588;33.450;2023-06-14T14:27:31;8.70;;;3.97;;
76854;SDS011;66343;44.588;33.450;2023-06-14T14:30:09;10.75;;;4.38;;
76854;SDS011;66343;44.588;33.450;2023-06-14T14:32:42;9.52;;;4.10;;
76854;SDS011;66343;44.588;33.450;2023-06-14T14:35:13;8.93;;;4.13;;
76854;SDS011;66343;44.588;33.450;2023-06-14T14:37:42;8.57;;;4.28;;
76854;SDS011;66343;44.588;33.450;2023-06-14T14:43:08;10.63;;;4.30;;
76854;SDS011;66343;44.588;33.450;2023-06-14T14:45:43;10.70;;;4.63;;
76854;SDS011;66343;44.588;33.450;2023-06-14T14:48:15;8.40;;;4.38;;
76854;SDS011;66343;44.588;33.450;2023-06-14T14:50:52;9.23;;;4.90;;
76854;SDS011;66343;44.588;33.450;2023-06-14T14:53:29;10.93;;;4.95;;
76854;SDS011;66343;44.588;33.450;2023-06-14T14:56:06;9.65;;;4.25;;
76854;SDS011;66343;44.588;33.450;2023-06-14T14:58:44;8.63;;;3.95;;
76854;SDS011;66343;44.588;33.450;2023-06-14T15:01:22;11.10;;;4.40;;
76854;SDS011;66343;44.588;33.450;2023-06-14T15:03:54;10.75;;;4.22;;
76854;SDS011;66343;44.588;33.450;2023-06-14T15:06:27;11.57;;;4.30;;
76854;SDS011;66343;44.588;33.450;2023-06-14T15:08:56;10.63;;;4.15;;
76854;SDS011;66343;44.588;33.450;2023-06-14T15:11:34;11.57;;;4.05;;
76854;SDS011;66343;44.588;33.450;2023-06-14T15:14:06;12.88;;;4.75;;
76854;SDS011;66343;44.588;33.450;2023-06-14T15:16:41;8.88;;;3.92;;
76854;SDS011;66343;44.588;33.450;2023-06-14T15:19:37;11.05;;;4.07;;
76854;SDS011;66343;44.588;33.450;2023-06-14T15:22:07;10.00;;;4.10;;
76854;SDS011;66343;44.588;33.450;2023-06-14T15:24:44;9.52;;;3.70;;
76854;SDS011;66343;44.588;33.450;2023-06-14T15:27:20;12.57;;;4.53;;
76854;SDS011;66343;44.588;33.450;2023-06-14T15:29:51;9.43;;;4.25;;
76854;SDS011;66343;44.588;33.450;2023-06-14T15:32:25;10.70;;;3.90;;
76854;SDS011;66343;44.588;33.450;2023-06-14T15:35:00;10.40;;;3.97;;
76854;SDS011;66343;44.588;33.450;2023-06-14T15:37:29;12.25;;;4.82;;
76854;SDS011;66343;44.588;33.450;2023-06-14T15:40:00;10.68;;;4.07;;
76854;SDS011;66343;44.588;33.450;2023-06-14T15:42:30;12.25;;;4.25;;
76854;SDS011;66343;44.588;33.450;2023-06-14T15:45:00;9.13;;;3.75;;
76854;SDS011;66343;44.588;33.450;2023-06-14T15:47:48;11.65;;;4.20;;